Time;durP1;ratioP1;P1;durP2;ratioP2;P2;SDS_P1;SDS_P2;PMS_P1;PMS_P2;Temp;Humidity;BMP_temperature;BMP_pressure;BME280_temperature;BME280_humidity;BME280_pressure;Samples;Min_cycle;Max_cycle;Signal;HPM_P1;HPM_P2
2023/12/15 00:01:37;;;;;;;880.28;805.50;;;5.20;99.90;;;;;;6331618;22;20335;-81
2023/12/15 00:04:03;;;;;;;906.92;828.55;;;5.20;99.90;;;;;;6304371;22;20011;-80
2023/12/15 00:06:29;;;;;;;939.47;857.00;;;5.20;99.90;;;;;;6277549;22;20090;-80
2023/12/15 00:08:55;;;;;;;877.83;804.30;;;5.70;99.90;;;;;;6303971;22;20026;-81
2023/12/15 00:11:20;;;;;;;900.10;823.42;;;5.20;99.90;;;;;;6331932;22;20369;-81
2023/12/15 00:13:46;;;;;;;935.22;854.30;;;5.30;99.90;;;;;;6305785;22;20034;-80
2023/12/15 00:16:12;;;;;;;874.20;801.13;;;5.30;99.90;;;;;;6305152;22;20017;-80
2023/12/15 00:18:37;;;;;;;892.17;816.88;;;5.30;99.90;;;;;;6306543;22;20054;-80
2023/12/15 00:21:03;;;;;;;896.30;820.38;;;5.30;99.90;;;;;;6305781;22;20025;-80
2023/12/15 00:23:29;;;;;;;886.80;810.60;;;5.40;99.90;;;;;;6305131;22;20098;-80
2023/12/15 00:25:55;;;;;;;906.60;829.75;;;5.50;99.90;;;;;;6306482;22;20081;-80
2023/12/15 00:28:20;;;;;;;880.45;805.75;;;5.40;99.90;;;;;;6334508;22;20015;-80
2023/12/15 00:30:46;;;;;;;897.08;821.15;;;5.40;99.90;;;;;;6304741;22;20435;-80
2023/12/15 00:33:12;;;;;;;890.15;814.72;;;5.40;99.90;;;;;;6334613;22;20027;-80
2023/12/15 00:35:37;;;;;;;892.25;817.45;;;5.40;99.90;;;;;;6303760;22;20410;-80
2023/12/15 00:38:03;;;;;;;868.53;796.22;;;5.40;99.90;;;;;;6281047;22;20451;-80
2023/12/15 00:40:29;;;;;;;885.50;812.00;;;5.50;99.90;;;;;;6305327;22;20019;-80
2023/12/15 00:42:54;;;;;;;924.88;841.72;;;5.50;99.90;;;;;;6279942;22;20014;-80
2023/12/15 00:45:20;;;;;;;899.25;823.85;;;5.50;99.90;;;;;;6306272;22;20080;-80
2023/12/15 00:47:46;;;;;;;891.03;815.80;;;5.40;99.90;;;;;;6305550;22;20426;-81
2023/12/15 00:50:12;;;;;;;882.65;809.00;;;5.50;99.90;;;;;;6304483;22;20019;-80
2023/12/15 00:52:37;;;;;;;870.17;796.72;;;5.50;99.90;;;;;;6306222;22;20312;-80
2023/12/15 00:55:04;;;;;;;891.05;817.50;;;5.50;99.90;;;;;;6305385;22;20446;-80
2023/12/15 00:57:29;;;;;;;917.40;838.10;;;5.50;99.90;;;;;;6305329;22;20037;-80
2023/12/15 00:59:55;;;;;;;931.75;851.25;;;5.60;99.90;;;;;;6274384;22;20030;-80
2023/12/15 01:02:21;;;;;;;877.15;802.05;;;5.60;99.90;;;;;;6275393;22;20020;-80
2023/12/15 01:04:47;;;;;;;876.50;802.40;;;5.60;99.90;;;;;;6273156;22;20030;-80
2023/12/15 01:07:12;;;;;;;898.70;820.55;;;5.60;99.90;;;;;;6274987;22;20016;-80
2023/12/15 01:09:38;;;;;;;884.75;808.85;;;5.60;99.90;;;;;;6302735;22;20120;-80
2023/12/15 01:12:04;;;;;;;875.92;801.97;;;5.60;99.90;;;;;;6274400;22;20098;-80
2023/12/15 01:14:30;;;;;;;872.83;799.30;;;5.70;99.90;;;;;;6302718;22;20015;-80
2023/12/15 01:16:55;;;;;;;932.78;850.20;;;6.10;99.90;;;;;;6276069;22;20023;-80
2023/12/15 01:19:21;;;;;;;878.83;804.22;;;5.60;99.90;;;;;;6273431;22;20019;-80
2023/12/15 01:21:47;;;;;;;901.90;823.15;;;5.70;99.90;;;;;;6275136;22;20015;-80
2023/12/15 01:24:13;;;;;;;867.17;794.47;;;5.70;99.90;;;;;;6274350;22;20027;-80
2023/12/15 01:26:39;;;;;;;883.13;808.72;;;5.70;99.90;;;;;;6274115;22;20098;-80
2023/12/15 01:29:05;;;;;;;854.67;781.53;;;5.70;99.90;;;;;;6249841;22;20104;-80
2023/12/15 01:31:31;;;;;;;901.65;823.65;;;5.70;99.90;;;;;;6274321;22;20054;-80
2023/12/15 01:33:57;;;;;;;862.53;789.67;;;5.70;99.90;;;;;;6274313;22;20365;-80
2023/12/15 01:36:22;;;;;;;863.65;790.50;;;5.70;99.90;;;;;;6273341;22;20050;-80
2023/12/15 01:38:48;;;;;;;904.90;825.30;;;5.80;99.90;;;;;;6274767;22;20012;-81
2023/12/15 01:41:14;;;;;;;915.50;836.40;;;5.70;99.90;;;;;;6273478;22;20519;-80
2023/12/15 01:43:40;;;;;;;869.78;794.38;;;5.80;99.90;;;;;;6274067;22;20339;-80
2023/12/15 01:46:06;;;;;;;867.55;794.00;;;5.80;99.90;;;;;;6248200;22;20209;-80
2023/12/15 01:48:32;;;;;;;899.08;821.05;;;5.70;99.90;;;;;;6273972;22;20019;-80
2023/12/15 01:50:58;;;;;;;891.95;814.70;;;5.80;99.90;;;;;;6274225;22;20076;-81
2023/12/15 01:53:23;;;;;;;916.25;836.30;;;5.80;99.90;;;;;;6273867;22;20382;-80
2023/12/15 01:55:49;;;;;;;873.20;798.67;;;5.90;99.90;;;;;;6273952;22;20041;-80
2023/12/15 01:58:15;;;;;;;895.60;817.80;;;5.90;99.90;;;;;;6278691;22;20019;-81
2023/12/15 02:00:41;;;;;;;917.83;834.80;;;5.90;99.90;;;;;;6298626;22;20348;-81
2023/12/15 02:03:07;;;;;;;915.70;833.90;;;5.90;99.90;;;;;;6300558;22;20047;-81
2023/12/15 02:05:32;;;;;;;971.25;880.92;;;5.90;99.90;;;;;;6299266;22;20106;-80
2023/12/15 02:07:59;;;;;;;903.85;824.05;;;6.00;99.90;;;;;;6299122;22;20019;-81
2023/12/15 02:10:25;;;;;;;894.90;816.75;;;5.90;99.90;;;;;;6300353;22;20026;-80
2023/12/15 02:12:50;;;;;;;908.47;828.85;;;6.10;99.90;;;;;;6300038;22;20015;-80
2023/12/15 02:15:17;;;;;;;911.17;830.35;;;6.00;99.90;;;;;;6299223;22;20389;-80
2023/12/15 02:17:42;;;;;;;905.17;823.70;;;6.00;99.90;;;;;;6300146;22;20031;-81
2023/12/15 02:20:08;;;;;;;875.35;798.60;;;6.10;99.90;;;;;;6301050;22;20019;-81
2023/12/15 02:22:34;;;;;;;895.97;817.47;;;6.00;99.90;;;;;;6273312;22;20015;-80
2023/12/15 02:25:00;;;;;;;855.20;781.17;;;6.00;99.90;;;;;;6302055;22;20011;-81
2023/12/15 02:27:25;;;;;;;899.17;819.03;;;6.00;99.90;;;;;;6300247;22;20447;-81
2023/12/15 02:29:51;;;;;;;852.97;780.33;;;6.00;99.90;;;;;;6299187;22;20046;-81
2023/12/15 02:32:17;;;;;;;889.03;810.67;;;6.20;99.90;;;;;;6299762;22;20023;-81
2023/12/15 02:34:42;;;;;;;872.83;798.33;;;6.20;99.90;;;;;;6301009;22;20217;-81
2023/12/15 02:37:08;;;;;;;856.97;784.42;;;6.00;99.90;;;;;;6300817;22;20015;-79
2023/12/15 02:39:34;;;;;;;876.53;799.83;;;6.00;99.90;;;;;;6299523;22;20056;-81
2023/12/15 02:41:59;;;;;;;876.67;801.10;;;6.10;99.90;;;;;;6302694;22;20081;-80
2023/12/15 02:44:25;;;;;;;886.58;810.25;;;6.10;99.90;;;;;;6272664;22;20044;-81
2023/12/15 02:46:51;;;;;;;897.60;818.88;;;6.00;99.90;;;;;;6300183;22;20038;-80
2023/12/15 02:49:18;;;;;;;853.10;780.17;;;6.00;99.90;;;;;;6298989;22;20050;-80
2023/12/15 02:51:44;;;;;;;906.92;826.88;;;6.30;99.90;;;;;;6298927;22;20030;-80
2023/12/15 02:54:10;;;;;;;911.70;831.83;;;6.00;99.90;;;;;;6300092;22;20026;-81
2023/12/15 02:56:35;;;;;;;899.60;820.00;;;6.10;99.90;;;;;;6300192;22;20098;-81
2023/12/15 02:59:01;;;;;;;922.10;839.65;;;6.10;99.90;;;;;;6299952;22;20323;-80
2023/12/15 03:01:27;;;;;;;889.60;813.95;;;6.10;99.90;;;;;;6298871;22;20072;-81
2023/12/15 03:03:52;;;;;;;892.67;816.33;;;6.20;99.90;;;;;;6299386;22;20043;-80
2023/12/15 03:06:18;;;;;;;895.92;817.15;;;6.10;99.90;;;;;;6298890;22;20034;-81
2023/12/15 03:08:44;;;;;;;860.55;787.47;;;6.10;99.90;;;;;;6300919;22;20018;-81
2023/12/15 03:11:10;;;;;;;833.17;763.53;;;6.00;99.90;;;;;;6272934;22;20443;-80
2023/12/15 03:13:38;;;;;;;857.33;785.70;;;6.00;99.90;;;;;;6301224;22;20090;-81
2023/12/15 03:16:08;;;;;;;863.90;791.42;;;5.90;99.90;;;;;;6299757;22;20015;-81
2023/12/15 03:18:34;;;;;;;825.97;757.08;;;5.90;99.90;;;;;;6298037;22;20018;-81
2023/12/15 03:21:00;;;;;;;807.15;740.03;;;5.90;99.90;;;;;;6298609;22;20118;-80
2023/12/15 03:23:26;;;;;;;824.97;756.92;;;5.80;99.90;;;;;;6299434;22;20042;-81
2023/12/15 03:25:52;;;;;;;826.83;758.53;;;5.80;99.90;;;;;;6298058;22;20449;-80
2023/12/15 03:28:17;;;;;;;794.97;729.22;;;5.80;99.90;;;;;;6299921;22;20022;-80
2023/12/15 03:30:43;;;;;;;771.83;708.13;;;5.70;99.90;;;;;;6298546;22;20012;-80
2023/12/15 03:33:09;;;;;;;756.72;694.95;;;5.80;99.90;;;;;;6300257;22;20331;-80
2023/12/15 03:35:34;;;;;;;782.50;718.47;;;5.50;99.90;;;;;;6298668;22;20072;-81
2023/12/15 03:38:04;;;;;;;817.80;748.88;;;5.50;99.90;;;;;;6299372;22;20022;-80
2023/12/15 03:40:29;;;;;;;817.08;748.72;;;5.50;99.90;;;;;;6300474;22;20026;-80
2023/12/15 03:42:55;;;;;;;839.50;769.17;;;5.40;99.90;;;;;;6299042;22;20336;-81
2023/12/15 03:45:21;;;;;;;843.58;770.42;;;5.40;99.90;;;;;;6273845;22;20027;-80
2023/12/15 03:47:47;;;;;;;826.88;758.13;;;5.50;99.90;;;;;;6297861;22;20022;-80
2023/12/15 03:50:12;;;;;;;846.42;774.40;;;5.40;99.90;;;;;;6272182;22;20019;-80
2023/12/15 03:52:38;;;;;;;845.22;774.42;;;5.30;99.90;;;;;;6298605;22;20027;-80
2023/12/15 03:55:04;;;;;;;858.30;784.20;;;5.40;99.90;;;;;;6300773;22;20011;-80
2023/12/15 03:57:30;;;;;;;874.67;799.40;;;5.30;99.90;;;;;;6301538;22;20110;-80
2023/12/15 03:59:55;;;;;;;850.83;778.17;;;5.40;99.90;;;;;;6247124;22;20463;-80
2023/12/15 04:02:21;;;;;;;797.38;731.20;;;5.50;99.90;;;;;;6273237;22;20102;-80
2023/12/15 04:04:47;;;;;;;807.60;740.90;;;5.30;99.90;;;;;;6272724;22;20088;-80
2023/12/15 04:07:13;;;;;;;778.03;713.40;;;5.20;99.90;;;;;;6272240;22;20022;-80
2023/12/15 04:09:38;;;;;;;833.55;763.45;;;5.20;99.90;;;;;;6273416;22;20122;-80
2023/12/15 04:12:04;;;;;;;834.80;765.17;;;5.10;99.90;;;;;;6273691;22;20069;-80
2023/12/15 04:14:33;;;;;;;823.90;754.10;;;5.10;99.90;;;;;;6299787;22;20061;-80
2023/12/15 04:16:59;;;;;;;869.80;795.00;;;5.10;99.90;;;;;;6273629;22;20050;-80
2023/12/15 04:19:24;;;;;;;863.95;790.40;;;5.30;99.90;;;;;;6271978;22;20011;-80
2023/12/15 04:21:50;;;;;;;855.35;783.38;;;5.10;99.90;;;;;;6272347;22;20034;-81
2023/12/15 04:24:16;;;;;;;844.13;772.97;;;5.00;99.90;;;;;;6273880;22;20092;-80
2023/12/15 04:26:42;;;;;;;857.35;784.35;;;5.00;99.90;;;;;;6272955;22;20068;-81
2023/12/15 04:29:07;;;;;;;831.50;761.35;;;5.30;99.90;;;;;;6272835;22;20101;-81
2023/12/15 04:31:33;;;;;;;853.95;781.67;;;5.00;99.90;;;;;;6299831;22;20011;-81
2023/12/15 04:33:59;;;;;;;862.47;789.17;;;5.00;99.90;;;;;;6301558;22;20047;-80
2023/12/15 04:36:26;;;;;;;846.03;776.10;;;4.90;99.90;;;;;;6271831;22;20166;-80
2023/12/15 04:38:52;;;;;;;831.20;762.38;;;4.90;99.90;;;;;;6273510;22;20061;-80
2023/12/15 04:41:21;;;;;;;838.00;768.47;;;4.80;99.90;;;;;;6274143;22;20090;-80
2023/12/15 04:43:47;;;;;;;881.90;804.63;;;4.90;99.90;;;;;;6272947;22;20312;-80
2023/12/15 04:46:28;;;;;;;937.83;854.50;;;4.90;99.90;;;;;;6273851;22;20066;-80
2023/12/15 04:48:55;;;;;;;890.08;814.13;;;4.90;99.90;;;;;;6300874;22;20025;-81
2023/12/15 04:51:21;;;;;;;930.40;845.42;;;5.50;99.90;;;;;;6246803;22;20080;-80
2023/12/15 04:53:48;;;;;;;969.83;880.05;;;5.30;99.90;;;;;;6301648;22;20011;-80
2023/12/15 04:56:15;;;;;;;919.40;838.92;;;5.40;99.90;;;;;;6272806;22;20027;-81
2023/12/15 04:58:41;;;;;;;909.88;830.85;;;5.50;99.90;;;;;;6283583;22;20066;-80
2023/12/15 05:01:14;;;;;;;987.15;897.10;;;5.50;99.90;;;;;;6303266;22;20106;-81
2023/12/15 05:03:41;;;;;;;909.83;830.95;;;5.50;99.90;;;;;;6300526;22;20023;-80
2023/12/15 05:06:16;;;;;;;872.47;800.35;;;5.70;99.90;;;;;;6300660;22;20015;-80
2023/12/15 05:08:42;;;;;;;899.55;821.88;;;5.40;99.90;;;;;;6302866;22;20007;-80
2023/12/15 05:11:07;;;;;;;908.40;830.00;;;5.40;99.90;;;;;;6299926;22;20066;-80
2023/12/15 05:13:33;;;;;;;913.33;833.85;;;5.40;99.90;;;;;;6300892;22;20072;-80
2023/12/15 05:15:59;;;;;;;882.00;807.90;;;5.40;99.90;;;;;;6301066;22;20122;-80
2023/12/15 05:18:24;;;;;;;839.03;770.00;;;5.30;99.90;;;;;;6274165;22;20145;-80
2023/12/15 05:20:51;;;;;;;805.78;740.17;;;5.30;99.90;;;;;;6299919;22;20027;-80
2023/12/15 05:23:16;;;;;;;789.08;726.05;;;5.30;99.90;;;;;;6300279;22;20011;-80
2023/12/15 05:25:42;;;;;;;825.72;759.13;;;5.10;99.90;;;;;;6299664;22;20022;-80
2023/12/15 05:28:08;;;;;;;782.17;719.58;;;5.00;99.90;;;;;;6301304;22;20076;-80
2023/12/15 05:30:33;;;;;;;784.30;721.25;;;5.20;99.90;;;;;;6299695;22;20011;-80
2023/12/15 05:32:59;;;;;;;779.22;716.60;;;4.90;99.90;;;;;;6299770;22;20026;-81
2023/12/15 05:35:25;;;;;;;746.53;687.92;;;4.90;99.90;;;;;;6299050;22;20023;-80
2023/12/15 05:37:51;;;;;;;759.42;699.47;;;4.80;99.90;;;;;;6301046;22;20030;-80
2023/12/15 05:40:16;;;;;;;744.92;686.10;;;4.80;99.90;;;;;;6301842;22;20019;-80
2023/12/15 05:42:42;;;;;;;788.67;725.90;;;4.70;99.90;;;;;;6299940;22;20483;-80
2023/12/15 05:45:08;;;;;;;769.50;707.55;;;4.60;99.90;;;;;;6273896;22;20023;-80
2023/12/15 05:47:36;;;;;;;726.90;669.60;;;4.50;99.90;;;;;;6300509;22;20015;-80
2023/12/15 05:50:02;;;;;;;801.83;736.28;;;4.50;99.90;;;;;;6299560;22;20019;-80
2023/12/15 05:52:28;;;;;;;847.17;776.95;;;4.50;99.90;;;;;;6299579;22;20034;-80
2023/12/15 05:54:54;;;;;;;831.88;762.80;;;4.70;99.90;;;;;;6299927;22;20023;-80
2023/12/15 05:57:19;;;;;;;827.97;759.47;;;4.60;99.90;;;;;;6302515;22;20086;-80
2023/12/15 05:59:45;;;;;;;897.08;821.58;;;5.00;99.90;;;;;;6329173;22;20461;-80
2023/12/15 06:02:11;;;;;;;851.70;780.85;;;4.50;99.90;;;;;;6305525;22;20025;-80
2023/12/15 06:04:37;;;;;;;863.00;789.92;;;4.60;99.90;;;;;;6304516;22;20057;-80
2023/12/15 06:07:03;;;;;;;848.33;778.03;;;4.60;99.90;;;;;;6303781;22;20304;-80
2023/12/15 06:09:28;;;;;;;844.67;773.40;;;4.70;99.90;;;;;;6303808;22;20059;-80
2023/12/15 06:11:55;;;;;;;862.53;789.80;;;4.70;99.90;;;;;;6304363;22;20019;-80
2023/12/15 06:14:21;;;;;;;867.80;795.38;;;4.60;99.90;;;;;;6303266;22;20095;-80
2023/12/15 06:16:47;;;;;;;864.47;793.08;;;4.60;99.90;;;;;;6278461;22;20568;-80
2023/12/15 06:19:13;;;;;;;858.05;785.65;;;4.80;99.90;;;;;;6332018;22;20023;-80
2023/12/15 06:21:39;;;;;;;867.63;793.40;;;5.10;99.90;;;;;;6302328;22;20493;-80
2023/12/15 06:24:05;;;;;;;866.08;792.45;;;5.00;99.90;;;;;;6331678;22;20338;-81
2023/12/15 06:26:31;;;;;;;891.78;814.00;;;5.10;99.90;;;;;;6303846;22;20026;-81
2023/12/15 06:28:57;;;;;;;905.60;826.28;;;5.10;99.90;;;;;;6303584;22;20010;-80
2023/12/15 06:31:27;;;;;;;887.50;812.15;;;5.20;99.90;;;;;;6277907;22;20549;-81
2023/12/15 06:33:53;;;;;;;893.80;816.38;;;5.20;99.90;;;;;;6332680;22;20045;-80
2023/12/15 06:36:19;;;;;;;843.78;772.65;;;5.10;99.90;;;;;;6301728;22;20431;-80
2023/12/15 06:38:45;;;;;;;882.30;807.63;;;5.10;99.90;;;;;;6304316;22;20058;-80
2023/12/15 06:41:11;;;;;;;881.25;806.92;;;5.10;99.90;;;;;;6303497;22;20026;-80
2023/12/15 06:43:42;;;;;;;870.00;796.45;;;5.10;99.90;;;;;;6331779;22;20079;-81
2023/12/15 06:46:08;;;;;;;828.53;761.10;;;5.10;99.90;;;;;;6304969;22;20046;-80
2023/12/15 06:48:34;;;;;;;758.92;697.40;;;5.10;99.90;;;;;;6278453;22;20141;-80
2023/12/15 06:51:01;;;;;;;712.83;656.50;;;4.90;99.90;;;;;;6304199;22;20015;-80
2023/12/15 06:53:26;;;;;;;741.35;681.90;;;4.90;99.90;;;;;;6304239;22;20050;-80
2023/12/15 06:55:52;;;;;;;662.15;610.47;;;5.00;99.90;;;;;;6304272;22;20099;-80
2023/12/15 06:58:19;;;;;;;712.42;656.03;;;4.80;99.90;;;;;;6298690;22;20026;-81
2023/12/15 07:00:44;;;;;;;702.42;647.47;;;5.20;99.90;;;;;;6299338;22;20030;-81
2023/12/15 07:03:10;;;;;;;679.10;626.35;;;4.70;99.90;;;;;;6298751;22;20019;-81
2023/12/15 07:05:36;;;;;;;737.65;678.38;;;4.80;99.90;;;;;;6297306;22;20080;-80
2023/12/15 07:08:03;;;;;;;746.47;687.88;;;4.70;99.90;;;;;;6299767;22;20018;-80
2023/12/15 07:10:29;;;;;;;821.95;755.72;;;4.80;99.90;;;;;;6297525;22;20018;-80
2023/12/15 07:12:54;;;;;;;826.15;758.00;;;4.90;99.90;;;;;;6299672;22;20019;-81
2023/12/15 07:15:20;;;;;;;787.45;723.33;;;4.90;99.90;;;;;;6273531;22;20076;-80
2023/12/15 07:17:46;;;;;;;829.60;761.33;;;4.90;99.90;;;;;;6298150;22;20023;-80
2023/12/15 07:20:11;;;;;;;797.63;732.40;;;5.00;99.90;;;;;;6272769;22;20057;-80
2023/12/15 07:22:37;;;;;;;786.15;723.63;;;5.00;99.90;;;;;;6298925;22;20029;-80
2023/12/15 07:25:03;;;;;;;792.25;727.83;;;5.00;99.90;;;;;;6298634;22;20094;-82
2023/12/15 07:27:29;;;;;;;760.47;699.85;;;4.90;99.90;;;;;;6273288;22;20440;-82
2023/12/15 07:29:55;;;;;;;792.50;729.15;;;5.00;99.90;;;;;;6297850;22;20130;-79
2023/12/15 07:32:21;;;;;;;768.38;707.28;;;4.90;99.90;;;;;;6299620;22;20003;-81
2023/12/15 07:34:47;;;;;;;778.20;715.63;;;4.80;99.90;;;;;;6297493;22;20096;-81
2023/12/15 07:37:13;;;;;;;762.17;701.20;;;4.90;99.90;;;;;;6299872;22;20015;-81
2023/12/15 07:39:38;;;;;;;765.22;705.63;;;5.00;99.90;;;;;;6297618;22;20022;-81
2023/12/15 07:42:04;;;;;;;759.72;699.85;;;5.10;99.90;;;;;;6273277;22;20015;-81
2023/12/15 07:44:30;;;;;;;754.95;695.53;;;4.70;99.90;;;;;;6298843;22;20424;-81
2023/12/15 07:46:56;;;;;;;710.22;654.55;;;4.80;99.90;;;;;;6298286;22;20034;-81
2023/12/15 07:49:23;;;;;;;694.92;640.78;;;4.70;99.90;;;;;;6299092;22;20019;-81
2023/12/15 07:51:49;;;;;;;683.22;630.05;;;4.60;99.90;;;;;;6298167;22;20068;-81
2023/12/15 07:54:16;;;;;;;678.80;626.30;;;4.60;99.90;;;;;;6300798;22;20480;-81
2023/12/15 07:56:42;;;;;;;700.97;646.25;;;4.50;99.90;;;;;;6298667;22;20026;-82
2023/12/15 07:59:08;;;;;;;737.25;678.90;;;4.50;99.90;;;;;;6297836;22;20011;-81
2023/12/15 08:01:34;;;;;;;744.95;686.33;;;4.60;99.90;;;;;;6272859;22;20487;-82
2023/12/15 08:04:00;;;;;;;729.70;673.00;;;4.60;99.90;;;;;;6299635;22;20011;-81
2023/12/15 08:06:25;;;;;;;756.92;697.13;;;4.50;99.90;;;;;;6296710;22;20086;-82
2023/12/15 08:08:52;;;;;;;763.78;703.70;;;4.60;99.90;;;;;;6299462;22;20522;-82
2023/12/15 08:11:18;;;;;;;803.42;738.80;;;4.70;99.90;;;;;;6300680;22;20069;-83
2023/12/15 08:13:44;;;;;;;777.50;715.45;;;4.70;99.90;;;;;;6297904;22;20090;-82
2023/12/15 08:16:11;;;;;;;810.55;745.85;;;4.80;99.90;;;;;;6299016;22;20062;-82
2023/12/15 08:18:37;;;;;;;850.78;778.28;;;4.80;99.90;;;;;;6299413;22;20097;-81
2023/12/15 08:21:03;;;;;;;831.28;763.70;;;4.90;99.90;;;;;;6271662;22;20016;-82
2023/12/15 08:23:29;;;;;;;811.25;745.88;;;5.00;99.90;;;;;;6298340;22;20069;-82
2023/12/15 08:25:55;;;;;;;836.33;768.20;;;5.10;99.90;;;;;;6273807;22;20518;-82
2023/12/15 08:28:20;;;;;;;808.42;742.58;;;5.20;99.90;;;;;;6298368;22;20082;-82
2023/12/15 08:30:48;;;;;;;796.08;731.65;;;5.30;99.90;;;;;;6298657;22;20455;-81
2023/12/15 08:33:14;;;;;;;782.65;718.88;;;5.30;99.90;;;;;;6298747;22;20011;-82
2023/12/15 08:35:40;;;;;;;810.45;746.03;;;5.40;99.90;;;;;;6298050;22;20393;-82
2023/12/15 08:38:06;;;;;;;807.55;741.53;;;5.50;99.90;;;;;;6301065;22;20016;-82
2023/12/15 08:40:31;;;;;;;811.13;746.13;;;5.40;99.90;;;;;;6302062;22;20486;-82
2023/12/15 08:42:57;;;;;;;776.28;714.05;;;5.40;99.90;;;;;;6300250;22;20435;-82
2023/12/15 08:45:23;;;;;;;786.88;724.17;;;5.50;99.90;;;;;;6301259;22;20034;-82
2023/12/15 08:47:49;;;;;;;785.10;721.75;;;5.60;99.90;;;;;;6300489;22;20072;-82
2023/12/15 08:50:15;;;;;;;760.30;698.88;;;5.70;99.90;;;;;;6298943;22;20098;-82
2023/12/15 08:52:41;;;;;;;799.42;734.53;;;5.70;99.90;;;;;;6274857;22;20038;-83
2023/12/15 08:55:07;;;;;;;800.30;736.83;;;5.60;99.90;;;;;;6299562;22;20396;-82
2023/12/15 08:57:33;;;;;;;802.05;737.80;;;5.60;99.90;;;;;;6301010;22;20012;-82
2023/12/15 08:59:59;;;;;;;748.95;689.53;;;5.70;99.90;;;;;;6305162;22;20058;-82
2023/12/15 09:02:26;;;;;;;769.97;709.50;;;5.90;99.90;;;;;;6279583;22;20451;-82
2023/12/15 09:04:52;;;;;;;745.83;688.65;;;5.70;99.90;;;;;;6304211;22;20014;-82
2023/12/15 09:07:18;;;;;;;731.88;675.03;;;5.60;99.90;;;;;;6280087;22;20015;-82
2023/12/15 09:09:44;;;;;;;757.17;697.58;;;5.80;99.90;;;;;;6304566;22;20022;-82
2023/12/15 09:12:10;;;;;;;751.25;691.13;;;5.70;99.90;;;;;;6305480;22;20427;-82
2023/12/15 09:14:36;;;;;;;773.65;713.17;;;5.80;99.90;;;;;;6305296;22;20128;-82
2023/12/15 09:17:03;;;;;;;781.45;719.03;;;5.80;99.90;;;;;;6304694;22;20017;-82
2023/12/15 09:19:29;;;;;;;757.58;697.38;;;6.00;99.90;;;;;;6304375;22;20402;-82
2023/12/15 09:21:55;;;;;;;763.55;703.78;;;5.90;99.90;;;;;;6305956;22;20357;-83
2023/12/15 09:24:21;;;;;;;756.33;696.75;;;6.10;99.90;;;;;;6304854;22;20093;-83
2023/12/15 09:26:47;;;;;;;772.05;711.78;;;6.00;99.90;;;;;;6305439;22;20050;-82
2023/12/15 09:29:14;;;;;;;759.10;698.63;;;6.10;99.90;;;;;;6333260;22;20050;-81
2023/12/15 09:31:40;;;;;;;773.80;712.25;;;6.20;99.90;;;;;;6304858;22;20098;-83
2023/12/15 09:34:06;;;;;;;744.50;686.80;;;6.10;99.90;;;;;;6305490;22;20054;-82
2023/12/15 09:36:32;;;;;;;724.53;668.15;;;6.20;99.90;;;;;;6304307;22;20091;-82
2023/12/15 09:38:58;;;;;;;715.80;660.05;;;6.10;99.90;;;;;;6304991;22;20392;-82
2023/12/15 09:41:24;;;;;;;731.72;674.08;;;6.20;99.90;;;;;;6278778;22;20098;-82
2023/12/15 09:43:50;;;;;;;725.60;669.05;;;6.20;99.90;;;;;;6305309;22;20018;-82
2023/12/15 09:46:16;;;;;;;772.90;712.53;;;6.30;99.90;;;;;;6303556;22;20075;-82
2023/12/15 09:48:43;;;;;;;747.80;689.67;;;6.40;99.90;;;;;;6305360;22;20450;-82
2023/12/15 09:51:15;;;;;;;763.38;702.88;;;6.40;99.90;;;;;;6279216;22;20015;-82
2023/12/15 09:53:46;;;;;;;783.65;721.58;;;6.40;99.90;;;;;;6305795;22;20019;-83
2023/12/15 09:56:12;;;;;;;758.33;698.97;;;6.60;99.90;;;;;;6279437;22;20389;-82
2023/12/15 09:58:38;;;;;;;723.53;667.60;;;6.50;99.90;;;;;;6304571;22;20022;-82
2023/12/15 10:01:05;;;;;;;703.75;649.00;;;6.70;99.90;;;;;;6305341;22;20019;-83
2023/12/15 10:03:31;;;;;;;717.47;662.17;;;6.70;99.90;;;;;;6305105;22;20011;-82
2023/12/15 10:05:57;;;;;;;698.08;644.05;;;6.60;99.90;;;;;;6303919;22;20474;-82
2023/12/15 10:08:24;;;;;;;741.80;684.60;;;6.70;99.90;;;;;;6305331;22;20015;-82
2023/12/15 10:10:50;;;;;;;704.85;650.22;;;6.70;99.90;;;;;;6305221;22;20042;-82
2023/12/15 10:13:16;;;;;;;696.00;641.33;;;6.90;99.90;;;;;;6304503;22;20455;-82
2023/12/15 10:15:42;;;;;;;711.47;656.17;;;6.90;99.90;;;;;;6305116;22;20054;-83
2023/12/15 10:18:08;;;;;;;677.85;625.97;;;7.00;99.90;;;;;;6305640;22;20014;-83
2023/12/15 10:20:34;;;;;;;670.83;619.25;;;6.90;99.90;;;;;;6303081;22;20342;-83
2023/12/15 10:23:01;;;;;;;660.22;609.97;;;7.00;99.90;;;;;;6280011;22;20343;-83
2023/12/15 10:25:27;;;;;;;660.28;610.35;;;7.00;99.90;;;;;;6278628;22;20027;-83
2023/12/15 10:27:53;;;;;;;658.88;608.65;;;7.00;99.90;;;;;;6305005;22;20023;-83
2023/12/15 10:30:19;;;;;;;690.05;637.80;;;6.90;99.90;;;;;;6279784;22;20018;-83
2023/12/15 10:32:45;;;;;;;662.83;611.63;;;7.00;99.90;;;;;;6304358;22;20075;-84
2023/12/15 10:35:12;;;;;;;660.38;609.40;;;7.00;99.90;;;;;;6303435;22;20018;-84
2023/12/15 10:37:38;;;;;;;681.35;628.20;;;7.00;99.90;;;;;;6304403;22;20046;-84
2023/12/15 10:40:05;;;;;;;641.78;592.03;;;7.00;99.90;;;;;;6278843;22;20018;-84
2023/12/15 10:42:31;;;;;;;696.80;643.10;;;7.10;99.90;;;;;;6277950;22;20042;-83
2023/12/15 10:44:58;;;;;;;679.97;628.28;;;7.10;99.90;;;;;;6304780;22;20095;-83
2023/12/15 10:47:26;;;;;;;701.40;647.78;;;7.10;99.90;;;;;;6305130;22;20038;-83
2023/12/15 10:49:52;;;;;;;704.13;649.15;;;7.10;99.90;;;;;;6302813;22;20018;-84
2023/12/15 10:52:21;;;;;;;702.88;648.78;;;7.30;99.90;;;;;;6305570;22;20054;-85
2023/12/15 10:54:50;;;;;;;672.35;620.80;;;7.30;99.90;;;;;;6302957;22;20093;-84
2023/12/15 10:57:16;;;;;;;706.40;651.70;;;7.40;99.90;;;;;;6279369;22;20029;-84
2023/12/15 10:59:42;;;;;;;677.03;624.78;;;7.30;99.90;;;;;;6298329;22;20098;-84
2023/12/15 11:02:11;;;;;;;697.90;644.13;;;7.40;99.90;;;;;;6299169;22;20104;-83
2023/12/15 11:04:37;;;;;;;687.85;635.10;;;7.50;99.90;;;;;;6297981;22;20109;-82
2023/12/15 11:07:03;;;;;;;692.25;639.08;;;7.50;99.90;;;;;;6299821;22;20534;-83
2023/12/15 11:09:32;;;;;;;645.47;594.88;;;7.40;99.90;;;;;;6297940;22;20055;-83
2023/12/15 11:12:22;;;;;;;673.53;621.80;;;7.50;99.90;;;;;;6273657;22;20015;-83
2023/12/15 11:15:02;;;;;;;669.67;618.17;;;7.60;99.90;;;;;;6299017;22;20056;-83
2023/12/15 11:17:29;;;;;;;635.63;587.00;;;7.60;99.90;;;;;;6272166;22;20019;-85
2023/12/15 11:20:06;;;;;;;640.08;591.38;;;7.60;99.90;;;;;;6272314;22;20338;-83
2023/12/15 11:22:40;;;;;;;689.17;637.40;;;7.60;99.90;;;;;;6272892;22;20504;-84
2023/12/15 11:25:06;;;;;;;638.97;590.25;;;7.70;99.90;;;;;;6298333;22;20011;-85
2023/12/15 11:27:32;;;;;;;691.22;638.10;;;7.70;99.90;;;;;;6299013;22;20015;-85
2023/12/15 11:30:31;;;;;;;656.03;605.33;;;7.80;99.90;;;;;;6272551;22;20462;-85
2023/12/15 11:32:56;;;;;;;720.63;663.95;;;7.90;99.90;;;;;;6299558;22;20016;-85
2023/12/15 11:35:29;;;;;;;705.30;650.38;;;7.90;99.90;;;;;;6272507;22;20022;-86
2023/12/15 11:37:57;;;;;;;676.92;625.15;;;8.00;99.90;;;;;;6272967;22;20023;-85
2023/12/15 11:40:25;;;;;;;667.38;616.05;;;8.10;99.90;;;;;;6299161;22;20526;-84
2023/12/15 11:42:51;;;;;;;664.45;613.50;;;8.00;99.90;;;;;;6299469;22;20008;-85
2023/12/15 11:45:18;;;;;;;712.88;658.42;;;8.10;99.90;;;;;;6298436;22;20019;-84
2023/12/15 11:47:43;;;;;;;697.78;644.17;;;8.10;99.90;;;;;;6299015;22;20019;-84
2023/12/15 11:50:09;;;;;;;671.92;620.42;;;8.20;99.90;;;;;;6297746;22;20072;-83
2023/12/15 11:52:40;;;;;;;672.00;620.55;;;8.30;99.90;;;;;;6298313;22;20094;-84
2023/12/15 11:55:07;;;;;;;635.83;587.30;;;8.20;99.90;;;;;;6272904;22;20026;-84
2023/12/15 11:57:36;;;;;;;689.67;636.83;;;8.30;99.90;;;;;;6299089;22;20019;-83
2023/12/15 12:00:03;;;;;;;671.95;620.45;;;8.30;99.90;;;;;;6301554;22;20111;-83
2023/12/15 12:02:29;;;;;;;698.13;644.53;;;8.20;99.90;;;;;;6304265;22;20019;-84
2023/12/15 12:04:55;;;;;;;663.00;611.65;;;8.30;99.90;;;;;;6302546;22;20010;-84
2023/12/15 12:07:21;;;;;;;650.40;600.50;;;8.40;99.90;;;;;;6304508;22;20022;-84
2023/12/15 12:09:47;;;;;;;699.55;645.65;;;8.40;99.90;;;;;;6305478;22;20030;-84
2023/12/15 12:12:13;;;;;;;651.38;602.00;;;8.30;99.90;;;;;;6279294;22;20723;-84
2023/12/15 12:14:42;;;;;;;673.67;621.60;;;8.40;99.90;;;;;;6306186;22;20011;-84